DDP weather

CLOSED Dorado Beach Airport
Dorado, Puerto Rico

Public forecast

Using degrees Celsius for public forecast. Weather courtesy of forecast.io.

Closest aviation weather report (METAR) to Dorado Beach Airport

Closest report is Fernando Luis Ribas Dominicci Airport, 11.3 nm (20.8 km) E. Retrieved 2020/07/07 11:45 UTC (1 hour ago):

TJIG 071145Z 11009KT 7SM -RA SCT025 BKN055 BKN070 27/24 A3000

Closest aviation forecast (TAF) to Dorado Beach Airport

Closest forecast is Luis Munoz Marin International Airport, 16.8 nm (31.1 km) E. Retrieved 2020/07/07 12:42 UTC (7 minutes ago):

TAF TJSJ 071136Z 0712/0812 09010KT P6SM VCSH SCT025 SCT040 FM071600 08017KT P6SM VCTS SCT025CB SCT040 SCT060 FM072300 09010KT P6SM VCSH SCT025 SCT040 BKN090